Time;durP1;ratioP1;P1;durP2;ratioP2;P2;SDS_P1;SDS_P2;PMS_P1;PMS_P2;Temp;Humidity;BMP_temperature;BMP_pressure;BME280_temperature;BME280_humidity;BME280_pressure;Samples;Min_cycle;Max_cycle;Signal;HPM_P1;HPM_P2
2023/09/19 00:00:44;;;;;;;16.75;2.75;;;;;;;11.91;100.00;99737.00;4976099;28;20539;-91
2023/09/19 00:03:11;;;;;;;22.15;3.72;;;;;;;11.95;100.00;99730.69;4976035;28;20030;-91
2023/09/19 00:05:38;;;;;;;20.88;2.90;;;;;;;11.81;100.00;99728.25;4975725;28;20027;-91
2023/09/19 00:08:04;;;;;;;23.98;3.70;;;;;;;11.69;100.00;99731.75;4975932;28;20384;-91
2023/09/19 00:10:31;;;;;;;16.67;2.78;;;;;;;11.89;100.00;99731.13;4976109;28;20027;-91
2023/09/19 00:12:59;;;;;;;22.85;4.35;;;;;;;11.95;100.00;99733.28;4975548;28;20413;-91
2023/09/19 00:15:29;;;;;;;16.15;3.67;;;;;;;11.75;100.00;99718.38;4975652;28;20027;-90
2023/09/19 00:17:55;;;;;;;15.10;2.97;;;;;;;11.71;100.00;99730.69;4975380;28;20485;-91
2023/09/19 00:20:22;;;;;;;21.25;3.22;;;;;;;11.82;100.00;99727.31;4975644;28;20027;-91
2023/09/19 00:22:54;;;;;;;21.00;4.05;;;;;;;11.75;100.00;99728.69;4975248;28;20034;-91
2023/09/19 00:25:20;;;;;;;21.25;3.42;;;;;;;11.72;100.00;99722.00;4975655;28;20081;-91
2023/09/19 00:27:47;;;;;;;22.08;3.75;;;;;;;11.78;100.00;99718.16;4975804;28;20038;-91
2023/09/19 00:30:19;;;;;;;22.23;4.68;;;;;;;11.76;100.00;99701.94;4974226;28;20425;-91
2023/09/19 00:32:47;;;;;;;20.13;3.00;;;;;;;11.76;100.00;99704.53;4974180;28;20055;-91
2023/09/19 00:35:15;;;;;;;21.88;3.58;;;;;;;11.78;100.00;99713.00;4975489;28;20065;-91
2023/09/19 00:37:40;;;;;;;15.20;2.80;;;;;;;11.77;100.00;99711.31;4974238;28;20033;-91
2023/09/19 00:40:11;;;;;;;16.80;3.05;;;;;;;11.86;100.00;99713.22;4975112;28;20022;-91
2023/09/19 00:42:37;;;;;;;22.63;2.05;;;;;;;11.77;100.00;99716.50;4975212;28;20031;-91
2023/09/19 00:45:03;;;;;;;30.38;4.25;;;;;;;11.74;100.00;99719.31;4975094;28;20081;-91
2023/09/19 00:47:29;;;;;;;20.10;3.90;;;;;;;11.74;100.00;99727.88;4975279;28;20094;-91
2023/09/19 00:49:55;;;;;;;28.27;3.75;;;;;;;11.71;100.00;99728.13;4974044;28;20274;-91
2023/09/19 00:52:21;;;;;;;21.10;2.83;;;;;;;11.73;100.00;99728.84;4974918;28;20673;-92
2023/09/19 00:54:47;;;;;;;26.52;4.78;;;;;;;12.02;100.00;99732.81;4974275;28;20425;-91
2023/09/19 00:57:14;;;;;;;18.95;3.38;;;;;;;12.06;100.00;99721.28;4989976;28;20031;-91
2023/09/19 00:59:42;;;;;;;21.75;3.22;;;;;;;11.95;100.00;99715.16;4975022;28;20077;-91
2023/09/19 01:02:07;;;;;;;9.57;2.30;;;;;;;11.96;100.00;99710.81;4974785;28;20477;-91
2023/09/19 01:04:34;;;;;;;11.20;2.53;;;;;;;11.81;100.00;99710.16;4974771;28;20038;-91
2023/09/19 01:06:59;;;;;;;11.80;2.55;;;;;;;11.75;100.00;99714.03;4974870;28;20031;-91
2023/09/19 01:09:24;;;;;;;18.55;4.10;;;;;;;11.80;100.00;99716.25;4974903;28;20089;-91
2023/09/19 01:11:53;;;;;;;18.98;3.55;;;;;;;11.88;100.00;99708.00;4973475;28;20481;-91
2023/09/19 01:14:52;;;;;;;15.13;2.72;;;;;;;11.69;100.00;99703.31;4973536;28;20031;-91
2023/09/19 01:17:32;;;;;;;17.77;3.55;;;;;;;11.70;100.00;99699.78;4974794;28;20034;-91
2023/09/19 01:20:28;;;;;;;20.90;3.53;;;;;;;11.60;100.00;99698.81;4974504;28;20030;-91
2023/09/19 01:23:14;;;;;;;17.40;3.92;;;;;;;11.61;100.00;99696.13;4974527;28;20031;-91
2023/09/19 01:25:58;;;;;;;16.20;2.80;;;;;;;11.69;100.00;99700.75;4974490;28;20030;-90
2023/09/19 01:28:43;;;;;;;21.50;3.33;;;;;;;11.70;100.00;99704.94;4974515;28;20105;-90
2023/09/19 01:31:11;;;;;;;29.85;3.58;;;;;;;11.69;100.00;99703.31;4974257;28;20031;-91
2023/09/19 01:33:59;;;;;;;21.10;3.40;;;;;;;11.57;100.00;99713.63;4989221;28;20027;-90
2023/09/19 01:36:26;;;;;;;16.08;2.85;;;;;;;11.56;100.00;99708.56;4972377;28;20500;-90
2023/09/19 01:38:53;;;;;;;22.40;4.00;;;;;;;11.57;100.00;99716.19;4974026;28;20031;-91
2023/09/19 01:41:29;;;;;;;18.80;3.33;;;;;;;11.67;100.00;99712.94;4973976;28;20042;-91
2023/09/19 01:43:56;;;;;;;16.30;2.47;;;;;;;11.67;100.00;99715.53;4988971;28;20370;-91
2023/09/19 01:46:29;;;;;;;17.48;2.78;;;;;;;11.60;100.00;99719.50;4974154;28;20041;-91
2023/09/19 01:49:21;;;;;;;15.45;2.20;;;;;;;11.57;100.00;99716.19;4973713;28;20023;-90
2023/09/19 01:52:09;;;;;;;14.15;2.08;;;;;;;11.51;100.00;99708.91;4988886;28;20129;-91
2023/09/19 01:54:44;;;;;;;17.70;2.60;;;;;;;11.44;100.00;99710.28;4973772;28;20054;-91
2023/09/19 01:57:17;;;;;;;11.88;2.20;;;;;;;11.42;100.00;99709.56;4973746;28;20135;-91
2023/09/19 01:59:52;;;;;;;22.52;3.33;;;;;;;11.42;100.00;99717.31;4973814;28;20043;-91
2023/09/19 02:02:21;;;;;;;19.63;3.05;;;;;;;11.39;100.00;99716.69;4973384;28;20030;-91
2023/09/19 02:04:48;;;;;;;21.83;3.67;;;;;;;11.36;100.00;99717.75;4972402;28;20045;-92
2023/09/19 02:07:15;;;;;;;17.67;2.75;;;;;;;11.41;100.00;99709.66;4973545;28;20062;-91
2023/09/19 02:09:42;;;;;;;20.38;2.63;;;;;;;11.42;100.00;99719.09;4972395;28;20034;-91
2023/09/19 02:12:09;;;;;;;25.65;5.40;;;;;;;11.50;100.00;99709.81;4973338;28;20038;-91
2023/09/19 02:14:35;;;;;;;21.88;3.22;;;;;;;11.42;100.00;99701.81;4973286;28;20109;-91
2023/09/19 02:17:03;;;;;;;10.38;2.13;;;;;;;11.42;100.00;99706.97;4973581;28;20019;-90
2023/09/19 02:19:29;;;;;;;15.07;2.78;;;;;;;11.39;100.00;99702.06;4973603;28;20018;-91
2023/09/19 02:21:55;;;;;;;17.20;3.28;;;;;;;11.42;100.00;99693.25;4988056;28;20049;-91
2023/09/19 02:24:20;;;;;;;16.02;2.75;;;;;;;11.39;100.00;99691.72;4973511;28;20421;-91
2023/09/19 02:26:47;;;;;;;13.55;2.28;;;;;;;11.47;100.00;99689.38;4973273;28;20021;-91
2023/09/19 02:29:12;;;;;;;14.35;1.65;;;;;;;11.37;100.00;99683.25;4973352;28;20106;-91
2023/09/19 02:31:38;;;;;;;21.10;2.90;;;;;;;11.39;100.00;99681.38;4973436;28;20050;-91
2023/09/19 02:34:05;;;;;;;18.65;2.40;;;;;;;11.45;100.00;99680.91;4973211;28;20030;-91
2023/09/19 02:36:30;;;;;;;18.38;2.30;;;;;;;11.56;100.00;99665.47;4973316;28;20026;-91
2023/09/19 02:38:56;;;;;;;17.13;2.25;;;;;;;11.57;100.00;99674.84;4973213;28;20038;-91
2023/09/19 02:41:21;;;;;;;10.02;2.45;;;;;;;11.61;100.00;99674.59;4973226;28;20493;-91
2023/09/19 02:43:47;;;;;;;21.48;3.72;;;;;;;11.65;100.00;99682.03;4973190;28;20433;-91
2023/09/19 02:46:12;;;;;;;15.98;2.78;;;;;;;11.65;100.00;99682.03;4973225;28;20038;-92
2023/09/19 02:48:38;;;;;;;15.15;2.85;;;;;;;11.74;100.00;99665.03;4973276;28;20030;-91
2023/09/19 02:51:03;;;;;;;13.95;1.95;;;;;;;11.65;100.00;99682.03;4973389;28;20034;-91
2023/09/19 02:53:30;;;;;;;19.00;2.70;;;;;;;11.75;100.00;99677.84;4972997;28;20069;-90
2023/09/19 02:55:56;;;;;;;20.30;2.88;;;;;;;11.74;100.00;99665.03;4973042;28;20397;-91
2023/09/19 02:58:22;;;;;;;13.25;2.17;;;;;;;11.90;100.00;99665.56;4973562;28;20023;-91
2023/09/19 03:00:49;;;;;;;13.60;2.05;;;;;;;11.99;100.00;99654.50;4973040;28;20034;-91
2023/09/19 03:03:16;;;;;;;24.52;2.47;;;;;;;11.95;100.00;99660.88;4973009;28;20373;-90
2023/09/19 03:05:46;;;;;;;14.35;2.42;;;;;;;11.88;100.00;99657.09;4973055;28;20034;-92
2023/09/19 03:08:14;;;;;;;14.52;3.08;;;;;;;11.91;100.00;99666.38;4972776;28;20429;-92
2023/09/19 03:10:40;;;;;;;14.45;2.58;;;;;;;11.98;100.00;99652.88;4972795;28;20027;-91
2023/09/19 03:13:09;;;;;;;13.38;1.95;;;;;;;11.89;100.00;99650.16;4971255;28;20073;-91
2023/09/19 03:15:37;;;;;;;18.15;2.63;;;;;;;11.89;100.00;99640.63;4972775;28;20038;-91
2023/09/19 03:18:02;;;;;;;15.23;2.40;;;;;;;11.93;100.00;99643.81;4971550;28;20031;-91
2023/09/19 03:20:28;;;;;;;14.15;2.40;;;;;;;11.91;100.00;99623.22;4972766;28;20062;-90
2023/09/19 03:22:53;;;;;;;16.88;3.25;;;;;;;11.90;100.00;99624.19;4972696;28;20511;-92
2023/09/19 03:25:19;;;;;;;17.02;2.05;;;;;;;11.93;100.00;99612.78;4971238;28;20469;-91
2023/09/19 03:27:44;;;;;;;19.45;2.67;;;;;;;12.01;100.00;99604.44;4987503;28;20030;-90
2023/09/19 03:30:13;;;;;;;15.35;1.88;;;;;;;11.98;100.00;99595.97;4971415;28;20031;-91
2023/09/19 03:32:44;;;;;;;17.33;2.00;;;;;;;11.96;100.00;99587.50;4986772;28;20384;-91
2023/09/19 03:35:13;;;;;;;8.63;1.83;;;;;;;12.01;100.00;99583.75;4972211;28;20031;-91
2023/09/19 03:37:39;;;;;;;12.00;1.70;;;;;;;12.03;100.00;99576.69;4972646;28;20033;-91
2023/09/19 03:40:05;;;;;;;17.23;2.75;;;;;;;12.10;100.00;99585.63;4972488;28;20106;-90
2023/09/19 03:42:31;;;;;;;13.73;2.42;;;;;;;12.17;100.00;99586.81;4972430;28;20110;-91
2023/09/19 03:44:57;;;;;;;10.25;1.98;;;;;;;12.07;100.00;99589.28;4972549;28;20451;-91
2023/09/19 03:47:22;;;;;;;10.52;1.60;;;;;;;12.10;100.00;99588.22;4972680;28;20078;-90
2023/09/19 03:49:48;;;;;;;21.83;2.08;;;;;;;12.12;100.00;99575.97;4972696;28;20516;-91
2023/09/19 03:52:15;;;;;;;21.25;2.20;;;;;;;12.13;100.00;99572.44;4972344;28;20035;-91
2023/09/19 03:54:41;;;;;;;14.85;2.95;;;;;;;12.14;100.00;99574.94;4972430;28;20027;-92
2023/09/19 03:57:06;;;;;;;11.50;1.75;;;;;;;12.26;100.00;99578.28;4972425;28;20035;-91
2023/09/19 03:59:32;;;;;;;14.05;2.40;;;;;;;12.31;100.00;99580.53;4974868;28;20045;-91
2023/09/19 04:01:58;;;;;;;10.85;1.80;;;;;;;12.32;100.00;99572.66;4976020;28;20030;-92
2023/09/19 04:04:25;;;;;;;11.48;1.90;;;;;;;12.31;100.00;99576.16;4975713;28;20058;-91
2023/09/19 04:06:51;;;;;;;10.35;1.33;;;;;;;12.24;100.00;99575.03;4975698;28;20031;-90
2023/09/19 04:09:16;;;;;;;16.45;1.60;;;;;;;12.30;100.00;99569.38;4975697;28;20081;-91
2023/09/19 04:11:41;;;;;;;11.82;2.08;;;;;;;12.26;100.00;99573.13;4975587;28;20421;-91
2023/09/19 04:14:07;;;;;;;7.38;1.88;;;;;;;12.32;100.00;99564.91;4975466;28;20038;-92
2023/09/19 04:16:32;;;;;;;10.55;1.23;;;;;;;12.45;100.00;99569.09;4974343;28;20340;-90
2023/09/19 04:18:57;;;;;;;11.25;1.52;;;;;;;12.33;100.00;99573.47;4975705;28;20389;-90
2023/09/19 04:21:23;;;;;;;11.50;1.50;;;;;;;12.35;100.00;99569.81;4975471;28;20449;-91
2023/09/19 04:23:48;;;;;;;9.65;2.03;;;;;;;12.40;100.00;99561.69;4975329;28;20464;-91
2023/09/19 04:26:15;;;;;;;8.02;1.42;;;;;;;12.36;100.00;99563.72;4975381;28;20462;-91
2023/09/19 04:28:41;;;;;;;7.75;2.05;;;;;;;12.47;100.00;99549.09;4975383;28;20098;-91
2023/09/19 04:31:08;;;;;;;7.15;1.45;;;;;;;12.55;100.00;99557.06;4975369;28;20022;-91
2023/09/19 04:33:35;;;;;;;10.43;1.52;;;;;;;12.53;100.00;99570.13;4975329;28;20035;-91
2023/09/19 04:36:00;;;;;;;4.32;0.88;;;;;;;12.60;100.00;99554.94;4975289;28;20381;-91
2023/09/19 04:38:26;;;;;;;6.90;1.77;;;;;;;12.58;100.00;99562.00;4973828;28;20061;-92
2023/09/19 04:40:57;;;;;;;6.40;0.93;;;;;;;12.64;100.00;99564.09;4975014;28;20114;-91
2023/09/19 04:43:23;;;;;;;9.80;1.73;;;;;;;12.61;100.00;99561.78;4975162;28;20080;-91
2023/09/19 04:45:49;;;;;;;10.00;1.85;;;;;;;12.66;100.00;99566.59;4975059;28;20090;-92
2023/09/19 04:48:15;;;;;;;7.75;1.13;;;;;;;12.66;100.00;99558.81;4975076;28;20039;-91
2023/09/19 04:50:41;;;;;;;10.57;1.48;;;;;;;12.68;100.00;99562.94;4974964;28;20539;-91
2023/09/19 04:53:07;;;;;;;8.50;1.10;;;;;;;12.68;100.00;99557.75;4974740;28;20015;-92
2023/09/19 04:55:32;;;;;;;9.10;1.10;;;;;;;12.69;100.00;99558.56;4975079;28;20030;-90
2023/09/19 04:57:58;;;;;;;6.20;1.13;;;;;;;12.73;100.00;99554.75;4974992;28;20054;-90
2023/09/19 05:00:24;;;;;;;5.53;1.00;;;;;;;12.76;100.00;99565.72;4974549;28;20034;-90
2023/09/19 05:02:56;;;;;;;10.25;1.13;;;;;;;12.74;100.00;99567.59;4974744;28;20102;-91
2023/09/19 05:05:22;;;;;;;;;;;;;;;12.83;100.00;99564.28;4973691;28;20038;-91
2023/09/19 05:07:47;;;;;;;6.97;0.90;;;;;;;12.78;100.00;99555.25;4973482;28;19921;-92
2023/09/19 05:10:13;;;;;;;7.00;1.52;;;;;;;12.76;100.00;99549.34;4973623;28;20481;-91
2023/09/19 05:12:39;;;;;;;7.30;1.30;;;;;;;12.75;100.00;99555.47;4974510;28;20375;-91
2023/09/19 05:15:07;;;;;;;8.93;1.70;;;;;;;12.82;100.00;99543.66;4974559;28;20027;-91
2023/09/19 05:17:32;;;;;;;6.40;0.70;;;;;;;12.91;100.00;99550.69;4974534;28;20505;-91
2023/09/19 05:19:58;;;;;;;5.88;0.82;;;;;;;12.87;100.00;99535.53;4974292;28;20042;-90
2023/09/19 05:22:26;;;;;;;11.88;1.23;;;;;;;12.87;100.00;99525.16;4974272;28;20034;-91
2023/09/19 05:24:52;;;;;;;8.48;1.83;;;;;;;12.77;100.00;99523.31;4974425;28;20174;-91
2023/09/19 05:27:18;;;;;;;10.60;2.00;;;;;;;12.78;100.00;99522.41;4974279;28;20101;-91
2023/09/19 05:29:44;;;;;;;4.50;0.80;;;;;;;12.85;100.00;99520.13;4974236;28;20031;-91
2023/09/19 05:32:10;;;;;;;7.22;1.05;;;;;;;12.81;100.00;99522.13;4974178;28;20417;-92
2023/09/19 05:34:36;;;;;;;9.85;1.50;;;;;;;12.80;100.00;99510.16;4974098;28;20027;-91
2023/09/19 05:37:01;;;;;;;5.70;1.00;;;;;;;12.81;100.00;99509.19;4974158;28;20389;-91
2023/09/19 05:39:27;;;;;;;10.32;1.67;;;;;;;12.93;100.00;99515.13;4974164;28;20101;-91
2023/09/19 05:41:52;;;;;;;8.18;1.48;;;;;;;13.03;100.00;99515.19;4973936;28;20570;-90
2023/09/19 05:44:17;;;;;;;7.13;2.70;;;;;;;12.98;100.00;99504.41;4973931;28;20533;-91
2023/09/19 05:46:43;;;;;;;9.63;1.33;;;;;;;13.02;100.00;99498.84;4974067;28;20113;-91
2023/09/19 05:49:08;;;;;;;8.68;1.65;;;;;;;13.04;100.00;99501.28;4973946;28;20541;-91
2023/09/19 05:51:35;;;;;;;12.40;1.40;;;;;;;13.05;100.00;99503.75;4974003;28;20038;-90
2023/09/19 05:54:00;;;;;;;10.68;1.55;;;;;;;12.99;100.00;99482.72;4973818;28;20490;-90
2023/09/19 05:56:25;;;;;;;5.80;1.55;;;;;;;13.09;100.00;99485.38;4971916;28;20065;-92
2023/09/19 05:58:53;;;;;;;11.77;2.30;;;;;;;13.11;100.00;99478.28;4972798;28;20389;-93
2023/09/19 06:01:18;;;;;;;8.52;1.58;;;;;;;13.04;100.00;99481.38;4971958;28;20030;-91
2023/09/19 06:03:44;;;;;;;13.32;1.90;;;;;;;13.20;100.00;99480.13;4972248;28;20062;-92
2023/09/19 06:06:09;;;;;;;8.93;2.28;;;;;;;13.13;100.00;99486.78;4971964;28;20035;-92
2023/09/19 06:08:35;;;;;;;7.22;1.65;;;;;;;13.18;100.00;99471.66;5001540;28;20054;-92
2023/09/19 06:11:00;;;;;;;9.27;2.13;;;;;;;13.22;100.00;99473.88;4969751;28;20023;-92
2023/09/19 06:13:28;;;;;;;11.68;2.50;;;;;;;13.28;100.00;99473.38;4968848;28;20485;-92
2023/09/19 06:15:56;;;;;;;9.55;2.10;;;;;;;13.27;100.00;99473.50;4970797;28;20057;-92
2023/09/19 06:18:26;;;;;;;8.23;1.85;;;;;;;13.35;100.00;99472.88;4971595;28;20026;-93
2023/09/19 06:20:51;;;;;;;19.83;3.22;;;;;;;13.28;100.00;99477.72;4953972;28;20034;-93
2023/09/19 06:23:19;;;;;;;9.43;2.00;;;;;;;13.24;100.00;99466.78;4957595;28;20023;-93
2023/09/19 06:25:45;;;;;;;12.80;1.98;;;;;;;13.30;100.00;99464.66;4970286;28;20385;-92
2023/09/19 06:28:14;;;;;;;11.20;1.80;;;;;;;13.27;100.00;99461.38;4959768;28;20039;-91
2023/09/19 06:30:40;;;;;;;9.65;1.95;;;;;;;13.43;100.00;99465.25;4970750;28;20030;-91
2023/09/19 06:33:06;;;;;;;9.13;2.08;;;;;;;13.35;100.00;99457.31;4961972;28;20081;-91
2023/09/19 06:35:33;;;;;;;12.73;1.70;;;;;;;13.37;100.00;99460.59;4952106;29;20363;-92
2023/09/19 06:37:58;;;;;;;8.13;1.67;;;;;;;13.46;100.00;99452.00;4952060;29;20038;-92
2023/09/19 06:40:24;;;;;;;11.13;2.85;;;;;;;13.45;100.00;99458.97;4952077;29;20031;-93
2023/09/19 06:42:53;;;;;;;12.52;2.60;;;;;;;13.46;100.00;99444.25;4972235;28;20027;-92
2023/09/19 06:45:19;;;;;;;12.15;2.92;;;;;;;13.52;100.00;99443.72;4981760;28;20297;-93
2023/09/19 06:47:49;;;;;;;17.27;2.70;;;;;;;13.58;100.00;99451.00;4992098;28;20111;-93
2023/09/19 06:50:15;;;;;;;14.15;2.67;;;;;;;13.62;100.00;99449.75;4990932;28;20392;-92
2023/09/19 06:52:41;;;;;;;16.90;3.25;;;;;;;13.72;100.00;99448.97;4992225;28;20037;-93
2023/09/19 06:55:07;;;;;;;10.52;2.47;;;;;;;13.81;100.00;99449.00;5007506;28;20022;-92
2023/09/19 06:57:32;;;;;;;25.63;4.10;;;;;;;13.74;100.00;99455.66;4992251;28;20022;-92
2023/09/19 06:59:58;;;;;;;10.02;2.67;;;;;;;13.77;100.00;99439.84;4990989;28;20030;-93
2023/09/19 07:02:23;;;;;;;12.57;2.28;;;;;;;13.81;100.00;99449.00;4992241;28;20477;-92
2023/09/19 07:04:49;;;;;;;13.00;3.40;;;;;;;13.77;100.00;99464.97;4992117;28;20548;-92
2023/09/19 07:07:15;;;;;;;8.73;2.40;;;;;;;13.89;100.00;99450.94;4981618;28;20026;-91
2023/09/19 07:09:42;;;;;;;16.00;3.38;;;;;;;13.83;100.00;99464.44;4972805;28;20544;-92
2023/09/19 07:12:08;;;;;;;18.92;3.53;;;;;;;13.78;100.00;99471.81;4971543;28;20066;-92
2023/09/19 07:14:33;;;;;;;17.48;3.38;;;;;;;13.79;100.00;99470.84;4971297;28;20097;-92
2023/09/19 07:17:01;;;;;;;11.80;3.58;;;;;;;13.93;100.00;99469.66;4992104;28;20027;-93
2023/09/19 07:19:31;;;;;;;18.77;3.38;;;;;;;13.97;100.00;99456.25;4990636;28;20022;-92
2023/09/19 07:21:59;;;;;;;20.95;3.63;;;;;;;13.98;100.00;99446.72;4976065;28;20120;-93
2023/09/19 07:24:27;;;;;;;15.80;3.67;;;;;;;14.03;100.00;99437.56;4988375;28;20030;-92
2023/09/19 07:26:52;;;;;;;17.95;3.35;;;;;;;14.05;100.00;99434.84;4989021;28;20026;-92
2023/09/19 07:29:17;;;;;;;15.38;2.97;;;;;;;14.09;100.00;99437.03;4970452;28;20039;-92
2023/09/19 07:31:44;;;;;;;13.18;3.38;;;;;;;14.22;100.00;99451.53;4971127;28;20054;-93
2023/09/19 07:34:10;;;;;;;16.58;4.15;;;;;;;14.30;100.00;99421.31;4974084;28;20059;-91
2023/09/19 07:36:37;;;;;;;19.10;4.50;;;;;;;14.36;100.00;99422.53;4975722;28;20106;-92
2023/09/19 07:39:06;;;;;;;18.88;4.28;;;;;;;14.50;100.00;99423.91;4975910;28;20023;-92
2023/09/19 07:41:32;;;;;;;18.88;3.42;;;;;;;14.55;100.00;99412.19;4974870;28;20370;-93
2023/09/19 07:43:57;;;;;;;12.85;3.65;;;;;;;14.51;100.00;99431.56;4974276;28;20090;-92
2023/09/19 07:46:24;;;;;;;17.42;4.50;;;;;;;14.52;100.00;99420.22;4974938;28;20034;-92
2023/09/19 07:48:50;;;;;;;13.07;3.53;;;;;;;14.69;100.00;99436.09;4976006;28;20034;-93
2023/09/19 07:51:15;;;;;;;16.20;4.03;;;;;;;14.90;100.00;99426.34;4974676;28;20385;-93
2023/09/19 07:53:42;;;;;;;15.13;4.38;;;;;;;14.87;100.00;99418.00;4976082;28;20548;-92
2023/09/19 07:56:09;;;;;;;17.08;3.72;;;;;;;15.20;100.00;99419.28;4985815;28;20121;-95
2023/09/19 07:58:36;;;;;;;21.58;4.78;;;;;;;15.50;100.00;99418.16;4998364;28;20022;-91
2023/09/19 08:01:13;;;;;;;19.52;4.57;;;;;;;15.36;100.00;99427.28;4975739;28;20019;-94
2023/09/19 08:03:43;;;;;;;27.10;6.15;;;;;;;15.09;100.00;99416.84;4974724;28;20050;-92
2023/09/19 08:06:09;;;;;;;15.23;4.32;;;;;;;14.95;100.00;99408.56;4975407;28;20019;-93
2023/09/19 08:08:38;;;;;;;23.92;4.95;;;;;;;14.90;100.00;99410.75;4958724;28;20031;-93
2023/09/19 08:11:12;;;;;;;21.70;4.80;;;;;;;14.96;100.00;99393.78;4956397;28;20458;-93
2023/09/19 08:13:43;;;;;;;24.52;4.80;;;;;;;15.08;100.00;99428.22;4990210;28;20037;-92
2023/09/19 08:16:10;;;;;;;17.35;4.57;;;;;;;15.45;100.00;99409.19;4974640;28;20018;-93
2023/09/19 08:18:37;;;;;;;16.15;4.40;;;;;;;15.24;100.00;99412.84;4960785;28;20035;-93
2023/09/19 08:21:03;;;;;;;18.80;4.63;;;;;;;15.34;100.00;99398.00;4970018;28;20394;-95
2023/09/19 08:23:28;;;;;;;24.55;4.75;;;;;;;15.35;100.00;99415.22;4974544;28;20026;-95
2023/09/19 08:25:58;;;;;;;21.00;5.10;;;;;;;15.62;100.00;99422.22;4974609;28;20109;-94
2023/09/19 08:28:24;;;;;;;25.08;5.75;;;;;;;15.93;100.00;99445.34;4973985;28;20105;-94
2023/09/19 08:30:50;;;;;;;16.10;4.25;;;;;;;15.96;100.00;99424.22;4973947;28;20460;-93
2023/09/19 08:33:16;;;;;;;17.25;5.18;;;;;;;15.83;100.00;99434.19;4975120;28;20088;-93
2023/09/19 08:35:42;;;;;;;23.13;4.95;;;;;;;15.59;100.00;99426.91;4960383;28;20114;-92
2023/09/19 08:38:08;;;;;;;19.30;4.50;;;;;;;15.45;100.00;99440.38;4965509;28;20481;-93
2023/09/19 08:40:39;;;;;;;20.15;5.00;;;;;;;15.45;100.00;99438.59;4974006;28;20041;-91
2023/09/19 08:43:07;;;;;;;19.33;4.63;;;;;;;15.47;100.00;99438.47;5005837;28;20065;-90
2023/09/19 08:45:33;;;;;;;22.77;5.40;;;;;;;15.44;100.00;99428.34;4968632;28;20027;-93
2023/09/19 08:48:23;;;;;;;24.25;6.07;;;;;;;15.35;100.00;99441.22;4989944;28;20084;-92
2023/09/19 08:50:55;;;;;;;22.60;5.13;;;;;;;15.31;100.00;99449.47;4987450;28;20035;-92
2023/09/19 08:53:31;;;;;;;20.38;4.32;;;;;;;15.16;100.00;99430.91;4966306;28;20031;-92
2023/09/19 08:56:01;;;;;;;16.48;5.00;;;;;;;15.20;100.00;99427.06;4974536;28;20110;-91
2023/09/19 08:58:33;;;;;;;16.50;4.35;;;;;;;15.05;100.00;99438.91;4974785;28;20031;-92
2023/09/19 09:01:00;;;;;;;;;;;;;;;14.95;100.00;99433.72;4973938;28;20034;-92
2023/09/19 09:03:26;;;;;;;14.75;4.38;;;;;;;14.94;100.00;99419.88;4974934;28;19918;-92
2023/09/19 09:05:52;;;;;;;18.10;4.40;;;;;;;14.99;100.00;99424.66;4974333;28;20031;-92
2023/09/19 09:08:21;;;;;;;22.08;5.20;;;;;;;15.16;100.00;99425.72;4974397;28;20093;-93
2023/09/19 09:10:47;;;;;;;12.25;3.90;;;;;;;15.28;100.00;99419.38;4973293;28;20031;-92
2023/09/19 09:13:14;;;;;;;16.40;3.70;;;;;;;15.44;100.00;99425.75;4974147;28;20022;-92
2023/09/19 09:15:42;;;;;;;14.55;3.92;;;;;;;15.37;100.00;99415.09;4974128;28;20031;-92
2023/09/19 09:18:07;;;;;;;18.95;4.40;;;;;;;15.43;100.00;99411.09;4972903;28;20118;-93
2023/09/19 09:20:32;;;;;;;18.30;4.20;;;;;;;15.50;100.00;99406.97;4974451;28;20097;-93
2023/09/19 09:23:04;;;;;;;20.60;4.70;;;;;;;15.49;100.00;99413.13;4974554;28;20022;-92
2023/09/19 09:25:50;;;;;;;;;;;;;;;15.53;100.00;99411.84;4974589;28;20081;-92
2023/09/19 09:28:20;;;;;;;18.00;4.57;;;;;;;15.61;100.00;99411.97;4997754;28;20380;-92
2023/09/19 09:30:46;;;;;;;12.27;3.70;;;;;;;15.63;100.00;99412.66;4974175;28;20038;-92
2023/09/19 09:33:14;;;;;;;13.52;3.42;;;;;;;15.71;100.00;99417.16;4973898;28;20105;-92
2023/09/19 09:35:51;;;;;;;20.73;3.95;;;;;;;15.65;100.00;99428.09;4972820;28;20038;-91
2023/09/19 09:38:18;;;;;;;22.02;4.32;;;;;;;15.65;100.00;99410.69;4972698;28;20140;-92
2023/09/19 09:40:54;;;;;;;16.60;3.55;;;;;;;15.70;100.00;99431.91;4973627;28;20026;-92
2023/09/19 09:43:31;;;;;;;14.98;4.38;;;;;;;16.01;100.00;99426.41;4974082;28;20034;-92
2023/09/19 09:51:43;;;;;;;15.73;4.65;;;;;;;16.11;100.00;99411.50;4973778;28;20464;-91
2023/09/19 09:54:12;;;;;;;11.88;2.67;;;;;;;16.06;100.00;99411.16;4992859;28;20469;-92
2023/09/19 09:56:54;;;;;;;12.75;3.85;;;;;;;16.12;100.00;99422.75;4971967;28;20027;-93
2023/09/19 09:59:23;;;;;;;;;;;;;;;16.18;100.00;99415.16;4973000;28;20437;-93
2023/09/19 10:01:49;;;;;;;12.93;2.55;;;;;;;16.13;100.00;99420.00;4973670;28;19913;-92
2023/09/19 10:04:35;;;;;;;10.90;3.15;;;;;;;16.11;100.00;99411.50;4973491;28;20113;-93
2023/09/19 10:07:05;;;;;;;10.45;2.30;;;;;;;16.01;100.00;99418.59;4972406;28;20023;-91
2023/09/19 10:09:44;;;;;;;13.02;2.78;;;;;;;16.13;100.00;99422.59;4973379;28;20109;-92
2023/09/19 10:12:12;;;;;;;16.55;3.58;;;;;;;16.04;100.00;99416.53;4973490;28;20103;-92
2023/09/19 10:14:41;;;;;;;8.43;2.35;;;;;;;15.90;100.00;99418.78;4989825;28;20027;-92
2023/09/19 10:17:10;;;;;;;11.45;2.20;;;;;;;15.93;100.00;99423.72;4973527;28;20030;-92
2023/09/19 10:19:48;;;;;;;12.32;2.40;;;;;;;15.93;100.00;99426.31;4972118;28;20575;-93
2023/09/19 10:22:16;;;;;;;6.80;2.05;;;;;;;16.02;100.00;99433.22;4973014;28;20043;-92
2023/09/19 10:24:44;;;;;;;9.57;2.47;;;;;;;15.86;100.00;99420.06;4971883;28;20027;-92
2023/09/19 10:27:11;;;;;;;13.13;3.10;;;;;;;15.80;100.00;99419.69;4972254;28;20022;-92
2023/09/19 10:29:39;;;;;;;8.15;1.58;;;;;;;15.84;100.00;99420.19;4972700;28;20058;-92
2023/09/19 10:32:06;;;;;;;6.03;1.88;;;;;;;15.83;100.00;99416.78;4973174;28;20027;-92
2023/09/19 10:34:41;;;;;;;10.85;2.83;;;;;;;15.75;100.00;99426.28;4971659;28;20022;-92
2023/09/19 10:37:11;;;;;;;9.57;2.00;;;;;;;15.69;100.00;99416.44;4973118;28;20135;-92
2023/09/19 10:39:40;;;;;;;6.22;1.63;;;;;;;15.67;100.00;99421.78;4971980;28;20392;-92
2023/09/19 10:42:06;;;;;;;5.25;1.55;;;;;;;15.55;100.00;99423.75;5004358;28;20054;-92
2023/09/19 10:44:33;;;;;;;7.55;2.17;;;;;;;15.54;100.00;99419.53;4973094;28;20027;-92
2023/09/19 10:46:59;;;;;;;8.65;1.98;;;;;;;15.62;100.00;99426.59;4973090;28;20022;-92
2023/09/19 10:49:25;;;;;;;5.53;1.67;;;;;;;15.76;100.00;99420.94;5004384;28;20027;-93
2023/09/19 10:51:55;;;;;;;4.10;1.30;;;;;;;15.73;100.00;99428.22;4971541;28;20023;-92
2023/09/19 10:54:26;;;;;;;14.45;1.80;;;;;;;15.79;100.00;99418.03;5004590;28;20316;-91
2023/09/19 10:56:53;;;;;;;5.38;1.42;;;;;;;15.88;100.00;99423.34;4972909;28;20022;-92
2023/09/19 10:59:24;;;;;;;6.15;1.70;;;;;;;15.79;100.00;99427.63;5004378;28;20049;-92
2023/09/19 11:01:58;;;;;;;4.45;1.40;;;;;;;15.79;100.00;99422.44;5004047;28;20045;-92
2023/09/19 11:04:35;;;;;;;7.38;1.90;;;;;;;15.86;100.00;99414.88;4971785;28;20074;-92
2023/09/19 11:07:14;;;;;;;2.50;1.17;;;;;;;15.77;100.00;99419.16;4972062;28;20389;-91
2023/09/19 11:10:01;;;;;;;5.07;1.20;;;;;;;15.78;100.00;99411.22;5005024;28;20429;-92
2023/09/19 11:12:30;;;;;;;4.32;1.40;;;;;;;15.98;100.00;99416.28;4976421;28;20022;-92
2023/09/19 11:14:56;;;;;;;4.63;1.13;;;;;;;15.92;100.00;99419.47;5008356;28;20080;-92
2023/09/19 11:17:32;;;;;;;3.08;0.75;;;;;;;15.99;100.00;99415.31;4976766;28;20101;-92
2023/09/19 11:22:50;;;;;;;4.22;0.85;;;;;;;16.10;100.00;99407.28;4975245;28;20034;-93
2023/09/19 11:25:30;;;;;;;9.82;1.35;;;;;;;16.15;100.00;99412.88;4976386;28;20023;-92
2023/09/19 11:28:19;;;;;;;1.20;1.00;;;;;;;16.20;100.00;99415.84;5007865;28;20126;-92
2023/09/19 11:30:45;;;;;;;3.03;0.85;;;;;;;16.06;100.00;99418.94;5007567;28;20034;-92
2023/09/19 11:33:23;;;;;;;6.18;1.00;;;;;;;16.17;100.00;99423.94;4975140;28;20023;-92